Flight Track Log - Related Links

Times and Time Zones

All times are in EDT time to prevent confusion due to time zone crossing. See the JIA2328 flight status page for this flight to view local times or setup timezone preferences in your user account.

Time Position Orientation Groundspeed Altitude Reporting Facility
EDT Latitude Longitude Course Direction KTS MPH feet Rate Location/Type
Sun 06:59:30 AM 30.4925 -87.1953 54° Northeast 134 154 1,200  Level Jacksonville Center
Sun 07:00:39 AM 30.5428 -87.1881 North 167 192 3,000 1,721 Climbing Jacksonville Center
Sun 07:01:39 AM 30.6022 -87.1569 24° Northeast 196 226 4,900 2,300 Climbing Jacksonville Center
Sun 07:02:00 AM 30.6508 -86.9155 50° Northeast  Level FlightAware Approximate
Sun 07:02:39 AM 30.6744 -87.1192 24° Northeast 244 281 7,600  Level Jacksonville Center
Sun 07:03:00 AM 30.7141 -86.8270 50° Northeast  Level FlightAware Approximate
Sun 07:03:39 AM 30.7467 -87.0789 26° Northeast 267 307 9,900  Level Jacksonville Center
Sun 07:04:00 AM 30.7738 -86.7354 54° Northeast  Level FlightAware Approximate
Sun 07:04:39 AM 30.8117 -87.0067 44° Northeast 299 344 12,100  Level Jacksonville Center
Sun 07:05:39 AM 30.8811 -86.9297 44° Northeast 315 362 14,000 1,800 Climbing Jacksonville Center
Sun 07:06:39 AM 30.9525 -86.8506 44° Northeast 336 387 15,700 1,700 Climbing Jacksonville Center
Sun 07:07:39 AM 31.0258 -86.7664 45° Northeast 354 407 17,400 1,900 Climbing Jacksonville Center
Sun 07:08:39 AM 31.1036 -86.6797 44° Northeast 354 407 19,500 1,900 Climbing Jacksonville Center
Sun 07:09:39 AM 31.1772 -86.5906 46° Northeast 354 407 21,200 1,450 Climbing Jacksonville Center
Sun 07:10:39 AM 31.2506 -86.5083 44° Northeast 354 407 22,400 1,027 Climbing Jacksonville Center
Sun 07:12:46 AM 31.4211 -86.3142 44° Northeast 387 445 24,400 930 Climbing Atlanta Center
Sun 07:13:46 AM 31.5061 -86.2189 44° Northeast 393 452 25,300 900 Climbing Atlanta Center
Sun 07:14:46 AM 31.5872 -86.1233 45° Northeast 405 466 26,200 900 Climbing Atlanta Center
Sun 07:15:46 AM 31.6722 -86.0253 44° Northeast 411 473 27,100 900 Climbing Atlanta Center
Sun 07:16:46 AM 31.7636 -85.9269 42° Northeast 416 479 28,000 900 Climbing Atlanta Center
Sun 07:17:46 AM 31.8442 -85.8283 46° Northeast 421 484 28,900 500 Climbing Atlanta Center
Sun 07:18:46 AM 31.9333 -85.7225 45° Northeast 427 491 29,000 50 Climbing Atlanta Center
Sun 07:19:46 AM 32.0203 -85.6189 45° Northeast 433 498 29,000  Level Atlanta Center
Sun 07:20:46 AM 32.1136 -85.5125 44° Northeast 444 511 29,000  Level Atlanta Center
Sun 07:21:46 AM 32.2003 -85.4133 44° Northeast 439 505 29,000  Level Atlanta Center
Sun 07:22:46 AM 32.2847 -85.3114 46° Northeast 434 499 29,000  Level Atlanta Center
Sun 07:23:46 AM 32.3672 -85.2144 45° Northeast 428 493 29,000  Level Atlanta Center
Sun 07:24:46 AM 32.4536 -85.1119 45° Northeast 428 493 29,000  Level Atlanta Center
Sun 07:25:46 AM 32.5358 -85.0119 46° Northeast 428 493 29,000  Level Atlanta Center
Sun 07:26:46 AM 32.6203 -84.9144 44° Northeast 428 493 29,000  Level Atlanta Center
Sun 07:27:46 AM 32.6981 -84.8286 43° Northeast 419 482 29,000  Level Atlanta Center
Sun 07:28:46 AM 32.7906 -84.7158 46° Northeast 414 476 29,000  Level Atlanta Center
Sun 07:29:46 AM 32.8661 -84.6275 44° Northeast 421 484 29,000  Level Atlanta Center
Sun 07:30:46 AM 32.9522 -84.5264 45° Northeast 421 484 29,000  Level Atlanta Center
Sun 07:31:46 AM 33.0358 -84.4228 46° Northeast 426 490 29,000  Level Atlanta Center
Sun 07:32:46 AM 33.1175 -84.3242 45° Northeast 426 490 29,000  Level Atlanta Center
Sun 07:33:46 AM 33.2033 -84.2200 45° Northeast 426 490 29,000  Level Atlanta Center
Sun 07:34:46 AM 33.2892 -84.1133 46° Northeast 432 497 29,000  Level Atlanta Center
Sun 07:35:46 AM 33.3747 -84.0139 44° Northeast 427 491 29,000  Level Atlanta Center
Sun 07:36:46 AM 33.4603 -83.9094 46° Northeast 427 491 29,000  Level Atlanta Center
Sun 07:37:46 AM 33.5436 -83.8069 46° Northeast 427 491 29,000  Level Atlanta Center
Sun 07:38:46 AM 33.6247 -83.6969 48° Northeast 433 498 29,000  Level Atlanta Center
Sun 07:39:46 AM 33.7036 -83.5844 50° Northeast 433 498 29,000  Level Atlanta Center
Sun 07:40:46 AM 33.7867 -83.4614 51° Northeast 433 498 29,000  Level Atlanta Center
Sun 07:41:46 AM 33.8633 -83.3458 51° Northeast 433 498 29,000  Level Atlanta Center
Sun 07:42:46 AM 33.9419 -83.2350 49° Northeast 433 498 29,000  Level Atlanta Center
Sun 07:43:46 AM 34.0161 -83.1242 51° Northeast 428 493 29,000  Level Atlanta Center
Sun 07:44:46 AM 34.0947 -83.0078 51° Northeast 428 493 29,000  Level Atlanta Center
Sun 07:45:46 AM 34.1689 -82.8989 51° Northeast 428 493 29,000  Level Atlanta Center
Sun 07:46:46 AM 34.2428 -82.7847 52° Northeast 428 493 29,000  Level Atlanta Center
Sun 07:47:46 AM 34.3189 -82.6731 50° Northeast 428 493 29,000  Level Atlanta Center
Sun 07:48:46 AM 34.3867 -82.5714 51° Northeast 428 493 29,000  Level Atlanta Center
Sun 07:49:46 AM 34.4583 -82.4592 52° Northeast 423 487 29,000  Level Atlanta Center
Sun 07:50:46 AM 34.5339 -82.3494 50° Northeast 428 493 29,000  Level Atlanta Center
Sun 07:51:46 AM 34.6094 -82.2317 52° Northeast 428 493 29,000  Level Atlanta Center
Sun 07:52:46 AM 34.6831 -82.1217 51° Northeast 428 493 29,000  Level Atlanta Center
Sun 07:53:46 AM 34.7561 -82.0061 52° Northeast 428 493 29,000  Level Atlanta Center
Sun 07:54:46 AM 34.8397 -81.8850 50° Northeast 423 487 29,000  Level Atlanta Center
Sun 07:55:46 AM 34.9128 -81.7667 53° Northeast 429 494 29,000  Level Atlanta Center
Sun 07:56:46 AM 34.9878 -81.6531 51° Northeast 424 488 29,000  Level Atlanta Center
Sun 07:57:46 AM 35.0628 -81.5392 51° Northeast 429 494 29,000  Level Atlanta Center
Sun 07:58:46 AM 35.1375 -81.4228 52° Northeast 424 488 29,000  Level Atlanta Center
Sun 07:59:46 AM 35.2100 -81.3061 53° Northeast 429 494 29,000  Level Atlanta Center
Sun 08:00:46 AM 35.2847 -81.1917 51° Northeast 429 494 29,000  Level Atlanta Center
Sun 08:01:46 AM 35.3589 -81.0719 53° Northeast 429 494 29,000  Level Atlanta Center
Sun 08:02:46 AM 35.4333 -80.9544 52° Northeast 429 494 29,000  Level Atlanta Center
Sun 08:03:46 AM 35.5075 -80.8369 52° Northeast 429 494 29,000  Level Atlanta Center
Sun 08:04:46 AM 35.5836 -80.7192 52° Northeast 429 494 29,000  Level Atlanta Center
Sun 08:06:18 AM 35.6947 -80.5383 53° Northeast 433 498 29,000  Level Washington Center
Sun 08:07:18 AM 35.7664 -80.4225 53° Northeast 437 503 29,000  Level Washington Center
Sun 08:08:16 AM 35.8419 -80.3042 52° Northeast 437 503 29,000  Level Washington Center
Sun 08:09:17 AM 35.9089 -80.1953 53° Northeast 442 509 29,000  Level Washington Center
Sun 08:10:18 AM 35.9908 -80.0692 51° Northeast 442 509 29,000  Level Washington Center
Sun 08:11:15 AM 36.0642 -79.9500 53° Northeast 437 503 29,000  Level Washington Center
Sun 08:12:16 AM 36.1356 -79.8228 55° Northeast 442 509 29,000  Level Washington Center
Sun 08:13:17 AM 36.1978 -79.7103 56° Northeast 435 501 29,000 -298 Level Washington Center
Sun 08:14:17 AM 36.2733 -79.5750 55° Northeast 440 506 28,400 -850 Descending Washington Center
Sun 08:15:17 AM 36.3356 -79.4647 55° Northeast 432 497 27,300 -1,119 Descending Washington Center
Sun 08:16:15 AM 36.4019 -79.3442 56° Northeast 432 497 26,200 -1,059 Descending Washington Center
Sun 08:17:16 AM 36.4703 -79.2208 55° Northeast 432 497 25,200 -590 Descending Washington Center
Sun 08:18:17 AM 36.5450 -79.0953 53° Northeast 423 487 25,000 -98 Descending Washington Center
Sun 08:19:18 AM 36.6111 -78.9764 55° Northeast 418 481 25,000  Level Washington Center
Sun 08:20:16 AM 36.6750 -78.8525 57° Northeast 423 487 25,000  Level Washington Center
Sun 08:21:18 AM 36.7408 -78.7333 55° Northeast 423 487 25,000  Level Washington Center
Sun 08:22:16 AM 36.8064 -78.6142 55° Northeast 418 481 25,000  Level Washington Center
Sun 08:23:16 AM 36.8697 -78.5022 55° Northeast 413 475 25,000  Level Washington Center
Sun 08:24:17 AM 36.9461 -78.3597 56° Northeast 433 498 25,000  Level Washington Center
Sun 08:25:17 AM 37.0158 -78.2319 56° Northeast 464 534 25,000 -397 Level Washington Center
Sun 08:26:18 AM 37.1122 -78.1078 46° Northeast 454 522 24,200 -1,059 Descending Washington Center
Sun 08:27:16 AM 37.2225 -78.0200 32° Northeast 454 522 22,900 -1,119 Descending Washington Center
Sun 08:28:16 AM 37.3286 -77.9347 33° Northeast 454 522 22,000 -446 Descending Washington Center
Sun 08:29:17 AM 37.4325 -77.8517 32° Northeast 448 516 22,000  Level Washington Center
Sun 08:30:15 AM 37.5339 -77.7733 31° Northeast 436 502 22,000  Level Washington Center
Sun 08:31:16 AM 37.6356 -77.6925 32° Northeast 431 496 22,000 -984 Level Washington Center
Sun 08:32:17 AM 37.7350 -77.6083 34° Northeast 431 496 20,000 -2,016 Descending Washington Center
Sun 08:33:18 AM 37.8322 -77.5322 32° Northeast 421 484 17,900 -2,118 Descending Washington Center
Sun 08:34:16 AM 37.9231 -77.4556 34° Northeast 408 470 15,800 -2,017 Descending Washington Center
Sun 08:35:17 AM 38.0097 -77.3864 32° Northeast 385 443 13,900 -1,537 Descending Washington Center
Sun 08:36:17 AM 38.0878 -77.3250 32° Northeast 367 422 12,700 -1,250 Descending Washington Center
Sun 08:37:17 AM 38.1742 -77.2583 31° Northeast 367 422 11,400 -1,289 Descending Washington Center
Sun 08:38:18 AM 38.2544 -77.1889 34° Northeast 361 415 10,100 -706 Descending Washington Center
Sun 08:39:16 AM 38.3322 -77.1294 31° Northeast 337 388 10,000 -252 Descending Washington Center
Sun 08:40:17 AM 38.4081 -77.0675 33° Northeast 324 373 9,600 -1,131 Descending Washington Center
Sun 08:41:18 AM 38.4797 -77.0186 28° Northeast 309 356 7,700 -1,686 Descending Washington Center
Sun 08:42:18 AM 38.5464 -77.0172 North 258 297 6,200 -1,563 Descending Washington Center
Sun 08:43:17 AM 38.6067 -77.0183 359° North 236 272 4,600 -1,563 Descending Washington Center
Sun 08:44:17 AM 38.6567 -77.0219 357° North 207 238 3,100 -1,059 Descending Washington Center
Sun 08:45:16 AM 38.7167 -77.0167 North 166 191 2,500 -650 Descending Potomac TRACON
Sun 08:46:17 AM 38.7500 -77.0333 339° North 158 182 1,800 -689 Descending Potomac TRACON

Login

Don't have an account? Register now (free) for customized features, flight alerts, and more!